sensor_id;sensor_type;location;lat;lon;timestamp;temperature;humidity
21722;DHT22;11023;48.274;7.794;2024-03-06T00:02:08;7.00;99.90
21722;DHT22;11023;48.274;7.794;2024-03-06T00:04:34;7.00;99.90
21722;DHT22;11023;48.274;7.794;2024-03-06T00:07:00;7.00;99.90
21722;DHT22;11023;48.274;7.794;2024-03-06T00:09:26;7.00;99.90
21722;DHT22;11023;48.274;7.794;2024-03-06T00:11:53;7.00;99.90
21722;DHT22;11023;48.274;7.794;2024-03-06T00:14:20;7.00;99.90
21722;DHT22;11023;48.274;7.794;2024-03-06T00:16:50;7.00;99.90
21722;DHT22;11023;48.274;7.794;2024-03-06T00:19:17;7.00;99.90
21722;DHT22;11023;48.274;7.794;2024-03-06T00:21:49;7.00;99.90
21722;DHT22;11023;48.274;7.794;2024-03-06T00:24:15;7.00;99.90
21722;DHT22;11023;48.274;7.794;2024-03-06T00:26:42;7.00;99.90
21722;DHT22;11023;48.274;7.794;2024-03-06T00:29:09;7.00;99.90
21722;DHT22;11023;48.274;7.794;2024-03-06T00:31:35;7.00;99.90
21722;DHT22;11023;48.274;7.794;2024-03-06T00:34:01;7.10;99.90
21722;DHT22;11023;48.274;7.794;2024-03-06T00:36:27;7.00;99.90
21722;DHT22;11023;48.274;7.794;2024-03-06T00:38:58;7.00;99.90
21722;DHT22;11023;48.274;7.794;2024-03-06T00:41:24;7.00;99.90
21722;DHT22;11023;48.274;7.794;2024-03-06T00:43:50;7.10;99.90
21722;DHT22;11023;48.274;7.794;2024-03-06T00:46:16;7.10;99.90
21722;DHT22;11023;48.274;7.794;2024-03-06T00:48:42;7.10;99.90
21722;DHT22;11023;48.274;7.794;2024-03-06T00:51:08;7.10;99.90
21722;DHT22;11023;48.274;7.794;2024-03-06T00:53:36;7.10;99.90
21722;DHT22;11023;48.274;7.794;2024-03-06T00:56:02;7.10;99.90
21722;DHT22;11023;48.274;7.794;2024-03-06T00:58:28;7.10;99.90
21722;DHT22;11023;48.274;7.794;2024-03-06T01:00:54;7.10;99.90
21722;DHT22;11023;48.274;7.794;2024-03-06T01:03:21;7.10;99.90
21722;DHT22;11023;48.274;7.794;2024-03-06T01:05:47;7.10;99.90
21722;DHT22;11023;48.274;7.794;2024-03-06T01:08:12;7.10;99.90
21722;DHT22;11023;48.274;7.794;2024-03-06T01:10:38;7.10;99.90
21722;DHT22;11023;48.274;7.794;2024-03-06T01:13:04;7.10;99.90
21722;DHT22;11023;48.274;7.794;2024-03-06T01:15:30;7.20;99.90
21722;DHT22;11023;48.274;7.794;2024-03-06T01:17:56;7.10;99.90
21722;DHT22;11023;48.274;7.794;2024-03-06T01:20:24;7.20;99.90
21722;DHT22;11023;48.274;7.794;2024-03-06T01:22:50;7.10;99.90
21722;DHT22;11023;48.274;7.794;2024-03-06T01:25:18;7.10;99.90
21722;DHT22;11023;48.274;7.794;2024-03-06T01:27:44;7.20;99.90
21722;DHT22;11023;48.274;7.794;2024-03-06T01:30:10;7.10;99.90
21722;DHT22;11023;48.274;7.794;2024-03-06T01:32:36;7.20;99.90
21722;DHT22;11023;48.274;7.794;2024-03-06T01:35:02;7.20;99.90
21722;DHT22;11023;48.274;7.794;2024-03-06T01:37:28;7.20;99.90
21722;DHT22;11023;48.274;7.794;2024-03-06T01:39:54;7.20;99.90
21722;DHT22;11023;48.274;7.794;2024-03-06T01:42:20;7.20;99.90
21722;DHT22;11023;48.274;7.794;2024-03-06T01:44:47;7.20;99.90
21722;DHT22;11023;48.274;7.794;2024-03-06T01:47:13;7.10;99.90
21722;DHT22;11023;48.274;7.794;2024-03-06T01:49:39;7.10;99.90
21722;DHT22;11023;48.274;7.794;2024-03-06T01:52:05;7.10;99.90
21722;DHT22;11023;48.274;7.794;2024-03-06T01:54:32;7.10;99.90
21722;DHT22;11023;48.274;7.794;2024-03-06T01:56:59;7.10;99.90
21722;DHT22;11023;48.274;7.794;2024-03-06T01:59:28;7.10;99.90
21722;DHT22;11023;48.274;7.794;2024-03-06T02:01:54;7.10;99.90
21722;DHT22;11023;48.274;7.794;2024-03-06T02:04:23;7.10;99.90
21722;DHT22;11023;48.274;7.794;2024-03-06T02:06:51;7.10;99.90
21722;DHT22;11023;48.274;7.794;2024-03-06T02:09:17;7.10;99.90
21722;DHT22;11023;48.274;7.794;2024-03-06T02:11:45;7.00;99.90
21722;DHT22;11023;48.274;7.794;2024-03-06T02:14:12;7.10;99.90
21722;DHT22;11023;48.274;7.794;2024-03-06T02:16:39;7.10;99.90
21722;DHT22;11023;48.274;7.794;2024-03-06T02:19:05;7.00;99.90
21722;DHT22;11023;48.274;7.794;2024-03-06T02:21:32;7.00;99.90
21722;DHT22;11023;48.274;7.794;2024-03-06T02:23:57;7.00;99.90
21722;DHT22;11023;48.274;7.794;2024-03-06T02:26:24;7.00;99.90
21722;DHT22;11023;48.274;7.794;2024-03-06T02:28:54;7.00;99.90
21722;DHT22;11023;48.274;7.794;2024-03-06T02:31:22;7.00;99.90
21722;DHT22;11023;48.274;7.794;2024-03-06T02:33:49;7.00;99.90
21722;DHT22;11023;48.274;7.794;2024-03-06T02:36:18;7.00;99.90
21722;DHT22;11023;48.274;7.794;2024-03-06T02:38:47;7.00;99.90
21722;DHT22;11023;48.274;7.794;2024-03-06T02:41:13;7.00;99.90
21722;DHT22;11023;48.274;7.794;2024-03-06T02:43:41;7.00;99.90
21722;DHT22;11023;48.274;7.794;2024-03-06T02:46:08;7.00;99.90
21722;DHT22;11023;48.274;7.794;2024-03-06T02:48:34;7.00;99.90
21722;DHT22;11023;48.274;7.794;2024-03-06T02:51:00;6.90;99.90
21722;DHT22;11023;48.274;7.794;2024-03-06T02:53:26;7.00;99.90
21722;DHT22;11023;48.274;7.794;2024-03-06T02:55:53;6.90;99.90
21722;DHT22;11023;48.274;7.794;2024-03-06T02:58:19;6.90;99.90
21722;DHT22;11023;48.274;7.794;2024-03-06T03:00:44;6.90;99.90
21722;DHT22;11023;48.274;7.794;2024-03-06T03:03:10;6.90;99.90
21722;DHT22;11023;48.274;7.794;2024-03-06T03:05:40;6.90;99.90
21722;DHT22;11023;48.274;7.794;2024-03-06T03:08:06;6.90;99.90
21722;DHT22;11023;48.274;7.794;2024-03-06T03:10:32;6.90;99.90
21722;DHT22;11023;48.274;7.794;2024-03-06T03:13:00;6.90;99.90
21722;DHT22;11023;48.274;7.794;2024-03-06T03:15:25;6.80;99.90
21722;DHT22;11023;48.274;7.794;2024-03-06T03:17:51;6.80;99.90
21722;DHT22;11023;48.274;7.794;2024-03-06T03:20:17;6.80;99.90
21722;DHT22;11023;48.274;7.794;2024-03-06T03:22:43;6.80;99.90
21722;DHT22;11023;48.274;7.794;2024-03-06T03:25:10;6.80;99.90
21722;DHT22;11023;48.274;7.794;2024-03-06T03:27:42;6.80;99.90
21722;DHT22;11023;48.274;7.794;2024-03-06T03:30:11;6.80;99.90
21722;DHT22;11023;48.274;7.794;2024-03-06T03:32:37;6.70;99.90
21722;DHT22;11023;48.274;7.794;2024-03-06T03:35:07;6.70;99.90
21722;DHT22;11023;48.274;7.794;2024-03-06T03:37:33;6.70;99.90
21722;DHT22;11023;48.274;7.794;2024-03-06T03:39:59;6.70;99.90
21722;DHT22;11023;48.274;7.794;2024-03-06T03:42:25;6.70;99.90
21722;DHT22;11023;48.274;7.794;2024-03-06T03:44:51;6.70;99.90
21722;DHT22;11023;48.274;7.794;2024-03-06T03:47:17;6.70;99.90
21722;DHT22;11023;48.274;7.794;2024-03-06T03:49:43;6.60;99.90
21722;DHT22;11023;48.274;7.794;2024-03-06T03:52:09;6.70;99.90
21722;DHT22;11023;48.274;7.794;2024-03-06T03:54:35;6.70;99.90
21722;DHT22;11023;48.274;7.794;2024-03-06T03:57:01;6.70;99.90
21722;DHT22;11023;48.274;7.794;2024-03-06T03:59:28;6.70;99.90
21722;DHT22;11023;48.274;7.794;2024-03-06T04:01:53;6.70;99.90
21722;DHT22;11023;48.274;7.794;2024-03-06T04:04:19;6.70;99.90
21722;DHT22;11023;48.274;7.794;2024-03-06T04:06:46;6.70;99.90
21722;DHT22;11023;48.274;7.794;2024-03-06T04:09:12;6.70;99.90
21722;DHT22;11023;48.274;7.794;2024-03-06T04:11:40;6.70;99.90
21722;DHT22;11023;48.274;7.794;2024-03-06T04:14:06;6.70;99.90
21722;DHT22;11023;48.274;7.794;2024-03-06T04:16:35;6.70;99.90
21722;DHT22;11023;48.274;7.794;2024-03-06T04:19:01;6.70;99.90
21722;DHT22;11023;48.274;7.794;2024-03-06T04:21:29;6.80;99.90
21722;DHT22;11023;48.274;7.794;2024-03-06T04:23:55;6.70;99.90
21722;DHT22;11023;48.274;7.794;2024-03-06T04:26:21;6.80;99.90
21722;DHT22;11023;48.274;7.794;2024-03-06T04:28:46;6.70;99.90
21722;DHT22;11023;48.274;7.794;2024-03-06T04:31:12;6.80;99.90
21722;DHT22;11023;48.274;7.794;2024-03-06T04:33:40;6.80;99.90
21722;DHT22;11023;48.274;7.794;2024-03-06T04:36:06;6.80;99.90
21722;DHT22;11023;48.274;7.794;2024-03-06T04:38:32;6.80;99.90
21722;DHT22;11023;48.274;7.794;2024-03-06T04:40:58;6.80;99.90
21722;DHT22;11023;48.274;7.794;2024-03-06T04:43:25;6.80;99.90
21722;DHT22;11023;48.274;7.794;2024-03-06T04:45:51;6.80;99.90
21722;DHT22;11023;48.274;7.794;2024-03-06T04:48:17;6.80;99.90
21722;DHT22;11023;48.274;7.794;2024-03-06T04:50:43;6.80;99.90
21722;DHT22;11023;48.274;7.794;2024-03-06T04:53:10;6.80;99.90
21722;DHT22;11023;48.274;7.794;2024-03-06T04:55:36;6.80;99.90
21722;DHT22;11023;48.274;7.794;2024-03-06T04:58:02;6.80;99.90
21722;DHT22;11023;48.274;7.794;2024-03-06T05:00:29;6.90;99.90
21722;DHT22;11023;48.274;7.794;2024-03-06T05:02:55;6.90;99.90
21722;DHT22;11023;48.274;7.794;2024-03-06T05:05:22;6.80;99.90
21722;DHT22;11023;48.274;7.794;2024-03-06T05:07:48;6.80;99.90
21722;DHT22;11023;48.274;7.794;2024-03-06T05:10:15;6.80;99.90
21722;DHT22;11023;48.274;7.794;2024-03-06T05:12:43;6.80;99.90
21722;DHT22;11023;48.274;7.794;2024-03-06T05:15:10;6.80;99.90
21722;DHT22;11023;48.274;7.794;2024-03-06T05:17:36;6.80;99.90
21722;DHT22;11023;48.274;7.794;2024-03-06T05:20:02;6.80;99.90
21722;DHT22;11023;48.274;7.794;2024-03-06T05:22:29;6.80;99.90
21722;DHT22;11023;48.274;7.794;2024-03-06T05:24:56;6.80;99.90
21722;DHT22;11023;48.274;7.794;2024-03-06T05:27:22;6.80;99.90
21722;DHT22;11023;48.274;7.794;2024-03-06T05:29:49;6.80;99.90
21722;DHT22;11023;48.274;7.794;2024-03-06T05:32:14;6.80;99.90
21722;DHT22;11023;48.274;7.794;2024-03-06T05:34:40;6.80;99.90
21722;DHT22;11023;48.274;7.794;2024-03-06T05:37:06;6.80;99.90
21722;DHT22;11023;48.274;7.794;2024-03-06T05:39:33;6.80;99.90
21722;DHT22;11023;48.274;7.794;2024-03-06T05:42:04;6.80;99.90
21722;DHT22;11023;48.274;7.794;2024-03-06T05:44:31;6.80;99.90
21722;DHT22;11023;48.274;7.794;2024-03-06T05:47:01;6.80;99.90
21722;DHT22;11023;48.274;7.794;2024-03-06T05:49:28;6.80;99.90
21722;DHT22;11023;48.274;7.794;2024-03-06T05:51:56;6.70;99.90
21722;DHT22;11023;48.274;7.794;2024-03-06T05:54:23;6.80;99.90
21722;DHT22;11023;48.274;7.794;2024-03-06T05:56:50;6.80;99.90
21722;DHT22;11023;48.274;7.794;2024-03-06T05:59:17;6.80;99.90
21722;DHT22;11023;48.274;7.794;2024-03-06T06:01:43;6.80;99.90
21722;DHT22;11023;48.274;7.794;2024-03-06T06:04:12;6.80;99.90
21722;DHT22;11023;48.274;7.794;2024-03-06T06:06:39;6.80;99.90
21722;DHT22;11023;48.274;7.794;2024-03-06T06:09:05;6.80;99.90
21722;DHT22;11023;48.274;7.794;2024-03-06T06:11:31;6.80;99.90
21722;DHT22;11023;48.274;7.794;2024-03-06T06:13:59;6.80;99.90
21722;DHT22;11023;48.274;7.794;2024-03-06T06:16:25;6.80;99.90
21722;DHT22;11023;48.274;7.794;2024-03-06T06:18:51;6.90;99.90
21722;DHT22;11023;48.274;7.794;2024-03-06T06:21:17;6.90;99.90
21722;DHT22;11023;48.274;7.794;2024-03-06T06:23:44;6.90;99.90
21722;DHT22;11023;48.274;7.794;2024-03-06T06:26:09;6.90;99.90
21722;DHT22;11023;48.274;7.794;2024-03-06T06:28:41;6.90;99.90
21722;DHT22;11023;48.274;7.794;2024-03-06T06:31:07;6.90;99.90
21722;DHT22;11023;48.274;7.794;2024-03-06T06:33:33;6.90;99.90
21722;DHT22;11023;48.274;7.794;2024-03-06T06:35:59;6.90;99.90
21722;DHT22;11023;48.274;7.794;2024-03-06T06:38:25;6.90;99.90
21722;DHT22;11023;48.274;7.794;2024-03-06T06:40:50;7.00;99.90
21722;DHT22;11023;48.274;7.794;2024-03-06T06:43:18;7.00;99.90
21722;DHT22;11023;48.274;7.794;2024-03-06T06:45:44;7.00;99.90
21722;DHT22;11023;48.274;7.794;2024-03-06T06:48:09;7.00;99.90
21722;DHT22;11023;48.274;7.794;2024-03-06T06:50:36;7.00;99.90
21722;DHT22;11023;48.274;7.794;2024-03-06T06:53:02;7.00;99.90
21722;DHT22;11023;48.274;7.794;2024-03-06T06:55:28;7.00;99.90
21722;DHT22;11023;48.274;7.794;2024-03-06T06:57:53;7.10;99.90
21722;DHT22;11023;48.274;7.794;2024-03-06T07:00:19;7.10;99.90
21722;DHT22;11023;48.274;7.794;2024-03-06T07:02:48;7.10;99.90
21722;DHT22;11023;48.274;7.794;2024-03-06T07:05:14;7.10;99.90
21722;DHT22;11023;48.274;7.794;2024-03-06T07:07:40;7.10;99.90
21722;DHT22;11023;48.274;7.794;2024-03-06T07:10:06;7.10;99.90
21722;DHT22;11023;48.274;7.794;2024-03-06T07:12:39;7.10;99.90
21722;DHT22;11023;48.274;7.794;2024-03-06T07:15:05;7.20;99.90
21722;DHT22;11023;48.274;7.794;2024-03-06T07:17:32;7.20;99.90
21722;DHT22;11023;48.274;7.794;2024-03-06T07:19:58;7.20;99.90
21722;DHT22;11023;48.274;7.794;2024-03-06T07:22:24;7.20;99.90
21722;DHT22;11023;48.274;7.794;2024-03-06T07:24:50;7.20;99.90
21722;DHT22;11023;48.274;7.794;2024-03-06T07:27:16;7.20;99.90
21722;DHT22;11023;48.274;7.794;2024-03-06T07:29:41;7.30;99.90
21722;DHT22;11023;48.274;7.794;2024-03-06T07:32:07;7.30;99.90
21722;DHT22;11023;48.274;7.794;2024-03-06T07:34:33;7.30;99.90
21722;DHT22;11023;48.274;7.794;2024-03-06T07:37:01;7.30;99.90
21722;DHT22;11023;48.274;7.794;2024-03-06T07:39:27;7.40;99.90
21722;DHT22;11023;48.274;7.794;2024-03-06T07:41:53;7.40;99.90
21722;DHT22;11023;48.274;7.794;2024-03-06T07:44:21;7.40;99.90
21722;DHT22;11023;48.274;7.794;2024-03-06T07:46:46;7.40;99.90
21722;DHT22;11023;48.274;7.794;2024-03-06T07:49:13;7.50;99.90
21722;DHT22;11023;48.274;7.794;2024-03-06T07:51:39;7.50;99.90
21722;DHT22;11023;48.274;7.794;2024-03-06T07:54:06;7.60;99.90
21722;DHT22;11023;48.274;7.794;2024-03-06T07:56:33;7.60;99.90
21722;DHT22;11023;48.274;7.794;2024-03-06T07:59:00;7.60;99.90
21722;DHT22;11023;48.274;7.794;2024-03-06T08:01:26;7.70;99.90
21722;DHT22;11023;48.274;7.794;2024-03-06T08:03:54;7.70;99.90
21722;DHT22;11023;48.274;7.794;2024-03-06T08:06:20;7.70;99.90
21722;DHT22;11023;48.274;7.794;2024-03-06T08:08:46;7.70;99.90
21722;DHT22;11023;48.274;7.794;2024-03-06T08:11:13;7.70;99.90
21722;DHT22;11023;48.274;7.794;2024-03-06T08:13:40;7.80;99.90
21722;DHT22;11023;48.274;7.794;2024-03-06T08:16:07;7.80;99.90
21722;DHT22;11023;48.274;7.794;2024-03-06T08:18:34;7.90;99.90
21722;DHT22;11023;48.274;7.794;2024-03-06T08:21:00;7.80;99.90
21722;DHT22;11023;48.274;7.794;2024-03-06T08:23:26;7.90;99.90
21722;DHT22;11023;48.274;7.794;2024-03-06T08:25:53;7.80;99.90
21722;DHT22;11023;48.274;7.794;2024-03-06T08:28:19;7.80;99.90
21722;DHT22;11023;48.274;7.794;2024-03-06T08:30:45;7.90;99.90
21722;DHT22;11023;48.274;7.794;2024-03-06T08:33:11;7.90;99.90
21722;DHT22;11023;48.274;7.794;2024-03-06T08:35:37;8.00;99.90
21722;DHT22;11023;48.274;7.794;2024-03-06T08:38:03;8.00;99.90
21722;DHT22;11023;48.274;7.794;2024-03-06T08:40:40;8.00;99.90
21722;DHT22;11023;48.274;7.794;2024-03-06T08:43:13;8.10;99.90
21722;DHT22;11023;48.274;7.794;2024-03-06T08:45:41;8.10;99.90
21722;DHT22;11023;48.274;7.794;2024-03-06T08:48:07;8.10;99.90
21722;DHT22;11023;48.274;7.794;2024-03-06T08:50:33;8.20;99.90
21722;DHT22;11023;48.274;7.794;2024-03-06T08:52:59;8.20;99.90
21722;DHT22;11023;48.274;7.794;2024-03-06T08:55:24;8.30;99.90
21722;DHT22;11023;48.274;7.794;2024-03-06T08:57:50;8.30;99.90
21722;DHT22;11023;48.274;7.794;2024-03-06T09:00:18;8.30;99.90
21722;DHT22;11023;48.274;7.794;2024-03-06T09:02:43;8.40;99.90
21722;DHT22;11023;48.274;7.794;2024-03-06T09:05:10;8.40;99.90
21722;DHT22;11023;48.274;7.794;2024-03-06T09:07:38;8.30;99.90
21722;DHT22;11023;48.274;7.794;2024-03-06T09:10:10;8.40;99.90
21722;DHT22;11023;48.274;7.794;2024-03-06T09:12:36;8.40;99.90
21722;DHT22;11023;48.274;7.794;2024-03-06T09:15:03;8.40;99.90
21722;DHT22;11023;48.274;7.794;2024-03-06T09:17:29;8.40;99.90
21722;DHT22;11023;48.274;7.794;2024-03-06T09:19:56;8.40;99.90
21722;DHT22;11023;48.274;7.794;2024-03-06T09:22:22;8.50;99.90
21722;DHT22;11023;48.274;7.794;2024-03-06T09:24:48;8.40;99.90
21722;DHT22;11023;48.274;7.794;2024-03-06T09:27:16;8.50;99.90
21722;DHT22;11023;48.274;7.794;2024-03-06T09:29:42;8.60;99.90
21722;DHT22;11023;48.274;7.794;2024-03-06T09:32:08;8.60;99.90
21722;DHT22;11023;48.274;7.794;2024-03-06T09:34:34;8.70;99.90
21722;DHT22;11023;48.274;7.794;2024-03-06T09:37:00;8.80;99.90
21722;DHT22;11023;48.274;7.794;2024-03-06T09:39:26;8.90;99.90
21722;DHT22;11023;48.274;7.794;2024-03-06T09:41:53;8.90;99.90
21722;DHT22;11023;48.274;7.794;2024-03-06T09:44:20;9.10;99.90
21722;DHT22;11023;48.274;7.794;2024-03-06T09:46:48;9.00;99.90
21722;DHT22;11023;48.274;7.794;2024-03-06T09:49:16;9.10;99.90
21722;DHT22;11023;48.274;7.794;2024-03-06T09:51:47;9.10;99.90
21722;DHT22;11023;48.274;7.794;2024-03-06T09:54:16;9.20;99.90
21722;DHT22;11023;48.274;7.794;2024-03-06T09:56:48;9.20;99.90
21722;DHT22;11023;48.274;7.794;2024-03-06T09:59:14;9.20;99.90
21722;DHT22;11023;48.274;7.794;2024-03-06T10:01:58;9.20;99.90
21722;DHT22;11023;48.274;7.794;2024-03-06T10:04:27;9.30;99.90
21722;DHT22;11023;48.274;7.794;2024-03-06T10:06:58;9.40;99.90
21722;DHT22;11023;48.274;7.794;2024-03-06T10:09:25;9.50;99.90
21722;DHT22;11023;48.274;7.794;2024-03-06T10:11:52;9.50;99.90
21722;DHT22;11023;48.274;7.794;2024-03-06T10:14:19;9.40;99.90
21722;DHT22;11023;48.274;7.794;2024-03-06T10:16:53;9.40;99.90
21722;DHT22;11023;48.274;7.794;2024-03-06T10:19:20;9.50;99.90
21722;DHT22;11023;48.274;7.794;2024-03-06T10:21:50;9.50;99.90
21722;DHT22;11023;48.274;7.794;2024-03-06T10:24:23;9.40;99.90
21722;DHT22;11023;48.274;7.794;2024-03-06T10:26:50;9.40;99.90
21722;DHT22;11023;48.274;7.794;2024-03-06T10:29:18;9.50;99.90
21722;DHT22;11023;48.274;7.794;2024-03-06T10:32:02;9.50;99.90
21722;DHT22;11023;48.274;7.794;2024-03-06T10:34:28;9.50;99.90
21722;DHT22;11023;48.274;7.794;2024-03-06T10:37:02;9.50;99.90
21722;DHT22;11023;48.274;7.794;2024-03-06T10:39:30;9.60;99.90
21722;DHT22;11023;48.274;7.794;2024-03-06T10:42:01;9.70;99.90
21722;DHT22;11023;48.274;7.794;2024-03-06T10:44:27;9.80;99.90
21722;DHT22;11023;48.274;7.794;2024-03-06T10:47:05;9.90;99.90
21722;DHT22;11023;48.274;7.794;2024-03-06T10:49:32;9.80;99.90
21722;DHT22;11023;48.274;7.794;2024-03-06T10:52:04;10.00;99.90
21722;DHT22;11023;48.274;7.794;2024-03-06T10:54:33;10.00;99.90
21722;DHT22;11023;48.274;7.794;2024-03-06T10:57:01;10.00;99.90
21722;DHT22;11023;48.274;7.794;2024-03-06T10:59:28;10.00;99.90
21722;DHT22;11023;48.274;7.794;2024-03-06T11:01:58;10.10;99.90
21722;DHT22;11023;48.274;7.794;2024-03-06T11:04:27;10.10;99.90
21722;DHT22;11023;48.274;7.794;2024-03-06T11:07:03;10.20;99.90
21722;DHT22;11023;48.274;7.794;2024-03-06T11:09:34;10.40;99.90
21722;DHT22;11023;48.274;7.794;2024-03-06T11:12:08;10.60;99.90
21722;DHT22;11023;48.274;7.794;2024-03-06T11:14:38;10.70;99.90
21722;DHT22;11023;48.274;7.794;2024-03-06T11:17:06;10.80;99.90
21722;DHT22;11023;48.274;7.794;2024-03-06T11:28:17;11.20;99.90
21722;DHT22;11023;48.274;7.794;2024-03-06T11:30:47;11.10;99.90
21722;DHT22;11023;48.274;7.794;2024-03-06T11:33:16;11.00;99.90
21722;DHT22;11023;48.274;7.794;2024-03-06T11:35:42;11.00;99.90
21722;DHT22;11023;48.274;7.794;2024-03-06T11:38:17;11.10;99.90
21722;DHT22;11023;48.274;7.794;2024-03-06T11:40:48;11.20;99.90
21722;DHT22;11023;48.274;7.794;2024-03-06T11:43:26;11.30;99.90
21722;DHT22;11023;48.274;7.794;2024-03-06T11:45:53;11.20;99.90
21722;DHT22;11023;48.274;7.794;2024-03-06T11:48:19;11.20;99.90
21722;DHT22;11023;48.274;7.794;2024-03-06T11:50:47;11.10;99.90
21722;DHT22;11023;48.274;7.794;2024-03-06T11:53:14;11.00;99.90
21722;DHT22;11023;48.274;7.794;2024-03-06T11:55:41;11.20;99.90
21722;DHT22;11023;48.274;7.794;2024-03-06T11:58:08;11.10;99.90
21722;DHT22;11023;48.274;7.794;2024-03-06T12:00:36;11.30;99.90
21722;DHT22;11023;48.274;7.794;2024-03-06T12:03:02;11.30;99.90
21722;DHT22;11023;48.274;7.794;2024-03-06T12:05:29;11.30;99.90
21722;DHT22;11023;48.274;7.794;2024-03-06T12:07:56;11.50;99.90
21722;DHT22;11023;48.274;7.794;2024-03-06T12:10:21;11.50;99.90
21722;DHT22;11023;48.274;7.794;2024-03-06T12:12:48;11.50;99.90
21722;DHT22;11023;48.274;7.794;2024-03-06T12:15:14;11.40;99.90
21722;DHT22;11023;48.274;7.794;2024-03-06T12:17:48;11.40;99.90
21722;DHT22;11023;48.274;7.794;2024-03-06T12:20:20;11.30;99.90
21722;DHT22;11023;48.274;7.794;2024-03-06T12:25:25;11.10;99.90
21722;DHT22;11023;48.274;7.794;2024-03-06T12:27:54;11.10;99.90
21722;DHT22;11023;48.274;7.794;2024-03-06T12:30:21;11.10;99.90
21722;DHT22;11023;48.274;7.794;2024-03-06T12:33:01;11.00;99.90
21722;DHT22;11023;48.274;7.794;2024-03-06T12:35:30;10.90;99.90
21722;DHT22;11023;48.274;7.794;2024-03-06T12:37:56;11.00;99.90
21722;DHT22;11023;48.274;7.794;2024-03-06T12:40:22;11.20;99.90
21722;DHT22;11023;48.274;7.794;2024-03-06T12:42:48;11.40;99.90
21722;DHT22;11023;48.274;7.794;2024-03-06T12:45:18;11.60;99.90
21722;DHT22;11023;48.274;7.794;2024-03-06T12:47:45;11.50;99.90
21722;DHT22;11023;48.274;7.794;2024-03-06T12:50:14;11.30;99.90
21722;DHT22;11023;48.274;7.794;2024-03-06T12:52:40;11.30;99.90
21722;DHT22;11023;48.274;7.794;2024-03-06T12:55:07;11.30;99.90
21722;DHT22;11023;48.274;7.794;2024-03-06T12:57:33;11.30;99.90
21722;DHT22;11023;48.274;7.794;2024-03-06T12:59:59;11.30;99.90
21722;DHT22;11023;48.274;7.794;2024-03-06T13:02:25;11.00;99.90
21722;DHT22;11023;48.274;7.794;2024-03-06T13:04:52;10.90;99.90
21722;DHT22;11023;48.274;7.794;2024-03-06T13:07:18;10.80;99.90
21722;DHT22;11023;48.274;7.794;2024-03-06T13:09:44;11.00;99.90
21722;DHT22;11023;48.274;7.794;2024-03-06T13:12:10;10.90;99.90
21722;DHT22;11023;48.274;7.794;2024-03-06T13:14:36;10.90;99.90
21722;DHT22;11023;48.274;7.794;2024-03-06T13:17:01;11.00;99.90
21722;DHT22;11023;48.274;7.794;2024-03-06T13:19:29;10.90;99.90
21722;DHT22;11023;48.274;7.794;2024-03-06T13:21:55;11.00;99.90
21722;DHT22;11023;48.274;7.794;2024-03-06T13:24:22;10.90;99.90
21722;DHT22;11023;48.274;7.794;2024-03-06T13:26:50;10.90;99.90
21722;DHT22;11023;48.274;7.794;2024-03-06T13:29:16;10.80;99.90
21722;DHT22;11023;48.274;7.794;2024-03-06T13:31:42;10.80;99.90
21722;DHT22;11023;48.274;7.794;2024-03-06T13:34:07;10.70;99.90
21722;DHT22;11023;48.274;7.794;2024-03-06T13:36:33;10.70;99.90
21722;DHT22;11023;48.274;7.794;2024-03-06T13:38:59;10.70;99.90
21722;DHT22;11023;48.274;7.794;2024-03-06T13:41:25;10.80;99.90
21722;DHT22;11023;48.274;7.794;2024-03-06T13:43:51;10.70;99.90
21722;DHT22;11023;48.274;7.794;2024-03-06T13:46:17;10.70;99.90
21722;DHT22;11023;48.274;7.794;2024-03-06T13:48:43;10.60;99.90
21722;DHT22;11023;48.274;7.794;2024-03-06T13:51:08;10.50;99.90
21722;DHT22;11023;48.274;7.794;2024-03-06T13:53:34;10.60;99.90
21722;DHT22;11023;48.274;7.794;2024-03-06T13:56:00;10.70;99.90
21722;DHT22;11023;48.274;7.794;2024-03-06T13:58:25;10.80;99.90
21722;DHT22;11023;48.274;7.794;2024-03-06T14:00:51;10.60;99.90
21722;DHT22;11023;48.274;7.794;2024-03-06T14:03:17;10.60;99.90
21722;DHT22;11023;48.274;7.794;2024-03-06T14:05:43;10.70;99.90
21722;DHT22;11023;48.274;7.794;2024-03-06T14:08:09;10.70;99.90
21722;DHT22;11023;48.274;7.794;2024-03-06T14:10:40;10.60;99.90
21722;DHT22;11023;48.274;7.794;2024-03-06T14:13:06;10.60;99.90
21722;DHT22;11023;48.274;7.794;2024-03-06T14:15:32;10.50;99.90
21722;DHT22;11023;48.274;7.794;2024-03-06T14:17:58;10.40;99.90
21722;DHT22;11023;48.274;7.794;2024-03-06T14:20:24;10.50;99.90
21722;DHT22;11023;48.274;7.794;2024-03-06T14:22:50;10.50;99.90
21722;DHT22;11023;48.274;7.794;2024-03-06T14:25:16;10.60;99.90
21722;DHT22;11023;48.274;7.794;2024-03-06T14:27:41;10.60;99.90
21722;DHT22;11023;48.274;7.794;2024-03-06T14:30:08;10.70;99.90
21722;DHT22;11023;48.274;7.794;2024-03-06T14:32:34;10.60;99.90
21722;DHT22;11023;48.274;7.794;2024-03-06T14:35:00;10.60;99.90
21722;DHT22;11023;48.274;7.794;2024-03-06T14:37:25;10.70;99.90
21722;DHT22;11023;48.274;7.794;2024-03-06T14:39:51;10.70;99.90
21722;DHT22;11023;48.274;7.794;2024-03-06T14:42:17;10.80;99.90
21722;DHT22;11023;48.274;7.794;2024-03-06T14:44:43;10.70;99.90
21722;DHT22;11023;48.274;7.794;2024-03-06T14:47:09;10.70;99.90
21722;DHT22;11023;48.274;7.794;2024-03-06T14:49:35;10.70;99.90
21722;DHT22;11023;48.274;7.794;2024-03-06T14:52:01;10.70;99.90
21722;DHT22;11023;48.274;7.794;2024-03-06T14:54:30;10.70;99.90
21722;DHT22;11023;48.274;7.794;2024-03-06T14:56:56;10.70;99.90
21722;DHT22;11023;48.274;7.794;2024-03-06T14:59:22;10.70;99.90
21722;DHT22;11023;48.274;7.794;2024-03-06T15:01:47;10.70;99.90
21722;DHT22;11023;48.274;7.794;2024-03-06T15:04:14;10.70;99.90
21722;DHT22;11023;48.274;7.794;2024-03-06T15:06:40;10.60;99.90
21722;DHT22;11023;48.274;7.794;2024-03-06T15:09:06;10.50;99.90
21722;DHT22;11023;48.274;7.794;2024-03-06T15:11:32;10.40;99.90
21722;DHT22;11023;48.274;7.794;2024-03-06T15:14:01;10.30;99.90
21722;DHT22;11023;48.274;7.794;2024-03-06T15:16:27;10.20;99.90
21722;DHT22;11023;48.274;7.794;2024-03-06T15:18:53;10.10;99.90
21722;DHT22;11023;48.274;7.794;2024-03-06T15:21:21;10.10;99.90
21722;DHT22;11023;48.274;7.794;2024-03-06T15:23:46;10.00;99.90
21722;DHT22;11023;48.274;7.794;2024-03-06T15:26:15;10.00;99.90
21722;DHT22;11023;48.274;7.794;2024-03-06T15:28:41;9.90;99.90
21722;DHT22;11023;48.274;7.794;2024-03-06T15:31:07;9.90;99.90
21722;DHT22;11023;48.274;7.794;2024-03-06T15:33:32;9.90;99.90
21722;DHT22;11023;48.274;7.794;2024-03-06T15:35:58;9.90;99.90
21722;DHT22;11023;48.274;7.794;2024-03-06T15:38:26;9.80;99.90
21722;DHT22;11023;48.274;7.794;2024-03-06T15:40:54;9.70;99.90
21722;DHT22;11023;48.274;7.794;2024-03-06T15:43:20;9.70;99.90
21722;DHT22;11023;48.274;7.794;2024-03-06T15:45:46;9.70;99.90
21722;DHT22;11023;48.274;7.794;2024-03-06T15:48:11;9.60;99.90
21722;DHT22;11023;48.274;7.794;2024-03-06T15:50:41;9.60;99.90
21722;DHT22;11023;48.274;7.794;2024-03-06T15:53:07;9.60;99.90